sensor_id;sensor_type;location;lat;lon;timestamp;P1;durP1;ratioP1;P2;durP2;ratioP2
53271;SDS011;39160;48.580;7.756;2022-12-18T00:06:10;19.35;;;7.32;;
53271;SDS011;39160;48.580;7.756;2022-12-18T00:11:08;21.90;;;8.77;;
53271;SDS011;39160;48.580;7.756;2022-12-18T00:16:07;48.03;;;16.90;;
53271;SDS011;39160;48.580;7.756;2022-12-18T00:21:01;51.25;;;19.50;;
53271;SDS011;39160;48.580;7.756;2022-12-18T00:25:53;37.15;;;13.15;;
53271;SDS011;39160;48.580;7.756;2022-12-18T00:30:44;20.02;;;7.97;;
53271;SDS011;39160;48.580;7.756;2022-12-18T00:35:35;20.58;;;7.95;;
53271;SDS011;39160;48.580;7.756;2022-12-18T00:40:25;22.15;;;8.07;;
53271;SDS011;39160;48.580;7.756;2022-12-18T00:45:16;19.73;;;7.85;;
53271;SDS011;39160;48.580;7.756;2022-12-18T00:50:07;22.02;;;8.18;;
53271;SDS011;39160;48.580;7.756;2022-12-18T00:54:58;24.52;;;7.90;;
53271;SDS011;39160;48.580;7.756;2022-12-18T00:59:49;20.17;;;7.20;;
53271;SDS011;39160;48.580;7.756;2022-12-18T01:04:40;12.30;;;7.32;;
53271;SDS011;39160;48.580;7.756;2022-12-18T01:09:30;20.83;;;8.50;;
53271;SDS011;39160;48.580;7.756;2022-12-18T01:14:21;22.42;;;9.15;;
53271;SDS011;39160;48.580;7.756;2022-12-18T01:19:12;17.17;;;7.40;;
53271;SDS011;39160;48.580;7.756;2022-12-18T01:24:05;19.55;;;7.47;;
53271;SDS011;39160;48.580;7.756;2022-12-18T01:28:57;23.52;;;8.15;;
53271;SDS011;39160;48.580;7.756;2022-12-18T01:33:48;22.55;;;7.72;;
53271;SDS011;39160;48.580;7.756;2022-12-18T01:38:39;22.75;;;7.95;;
53271;SDS011;39160;48.580;7.756;2022-12-18T01:43:49;21.23;;;8.52;;
53271;SDS011;39160;48.580;7.756;2022-12-18T01:48:43;17.42;;;7.40;;
53271;SDS011;39160;48.580;7.756;2022-12-18T01:53:37;19.33;;;6.85;;
53271;SDS011;39160;48.580;7.756;2022-12-18T01:58:35;28.08;;;8.15;;
53271;SDS011;39160;48.580;7.756;2022-12-18T02:03:48;16.17;;;6.60;;
53271;SDS011;39160;48.580;7.756;2022-12-18T02:08:48;15.63;;;7.20;;
53271;SDS011;39160;48.580;7.756;2022-12-18T02:14:28;21.08;;;7.90;;
53271;SDS011;39160;48.580;7.756;2022-12-18T02:29:46;19.00;;;6.80;;
53271;SDS011;39160;48.580;7.756;2022-12-18T02:34:41;16.17;;;5.93;;
53271;SDS011;39160;48.580;7.756;2022-12-18T02:39:34;21.83;;;7.47;;
53271;SDS011;39160;48.580;7.756;2022-12-18T02:44:27;18.00;;;7.45;;
53271;SDS011;39160;48.580;7.756;2022-12-18T03:05:18;25.52;;;6.97;;
53271;SDS011;39160;48.580;7.756;2022-12-18T03:10:14;19.80;;;7.05;;
53271;SDS011;39160;48.580;7.756;2022-12-18T03:16:10;17.35;;;6.70;;
53271;SDS011;39160;48.580;7.756;2022-12-18T03:20:43;17.08;;;8.05;;
53271;SDS011;39160;48.580;7.756;2022-12-18T03:25:37;22.33;;;7.28;;
53271;SDS011;39160;48.580;7.756;2022-12-18T03:30:31;19.67;;;6.35;;
53271;SDS011;39160;48.580;7.756;2022-12-18T03:35:25;14.40;;;6.88;;
53271;SDS011;39160;48.580;7.756;2022-12-18T03:45:24;15.32;;;5.78;;
53271;SDS011;39160;48.580;7.756;2022-12-18T03:50:25;19.08;;;6.30;;
53271;SDS011;39160;48.580;7.756;2022-12-18T03:55:18;15.88;;;5.75;;
53271;SDS011;39160;48.580;7.756;2022-12-18T04:00:14;23.98;;;7.00;;
53271;SDS011;39160;48.580;7.756;2022-12-18T04:05:07;16.48;;;6.55;;
53271;SDS011;39160;48.580;7.756;2022-12-18T04:10:00;23.85;;;8.65;;
53271;SDS011;39160;48.580;7.756;2022-12-18T04:14:52;32.15;;;7.53;;
53271;SDS011;39160;48.580;7.756;2022-12-18T04:19:43;20.63;;;5.82;;
53271;SDS011;39160;48.580;7.756;2022-12-18T04:24:33;14.43;;;6.20;;
53271;SDS011;39160;48.580;7.756;2022-12-18T04:29:24;17.83;;;6.57;;
53271;SDS011;39160;48.580;7.756;2022-12-18T04:34:15;18.75;;;6.47;;
53271;SDS011;39160;48.580;7.756;2022-12-18T04:39:05;18.40;;;6.22;;
53271;SDS011;39160;48.580;7.756;2022-12-18T04:43:56;22.52;;;7.25;;
53271;SDS011;39160;48.580;7.756;2022-12-18T04:48:46;23.02;;;8.52;;
53271;SDS011;39160;48.580;7.756;2022-12-18T04:53:37;22.23;;;5.57;;
53271;SDS011;39160;48.580;7.756;2022-12-18T04:58:28;19.15;;;5.60;;
53271;SDS011;39160;48.580;7.756;2022-12-18T05:03:18;12.40;;;6.60;;
53271;SDS011;39160;48.580;7.756;2022-12-18T05:08:09;18.92;;;5.78;;
53271;SDS011;39160;48.580;7.756;2022-12-18T05:13:10;11.75;;;5.47;;
53271;SDS011;39160;48.580;7.756;2022-12-18T05:18:01;18.65;;;5.10;;
53271;SDS011;39160;48.580;7.756;2022-12-18T05:22:53;16.85;;;4.28;;
53271;SDS011;39160;48.580;7.756;2022-12-18T05:27:44;16.65;;;6.13;;
53271;SDS011;39160;48.580;7.756;2022-12-18T05:32:35;16.17;;;4.53;;
53271;SDS011;39160;48.580;7.756;2022-12-18T05:37:26;14.02;;;5.07;;
53271;SDS011;39160;48.580;7.756;2022-12-18T05:42:17;11.82;;;4.18;;
53271;SDS011;39160;48.580;7.756;2022-12-18T05:47:07;15.50;;;4.40;;
53271;SDS011;39160;48.580;7.756;2022-12-18T05:51:59;12.80;;;4.75;;
53271;SDS011;39160;48.580;7.756;2022-12-18T05:56:50;12.48;;;3.83;;
53271;SDS011;39160;48.580;7.756;2022-12-18T06:01:41;9.90;;;4.75;;
53271;SDS011;39160;48.580;7.756;2022-12-18T06:06:33;9.25;;;3.97;;
53271;SDS011;39160;48.580;7.756;2022-12-18T06:11:24;19.73;;;6.05;;
53271;SDS011;39160;48.580;7.756;2022-12-18T06:16:16;15.20;;;4.97;;
53271;SDS011;39160;48.580;7.756;2022-12-18T06:21:06;10.23;;;3.70;;
53271;SDS011;39160;48.580;7.756;2022-12-18T06:25:58;16.35;;;5.68;;
53271;SDS011;39160;48.580;7.756;2022-12-18T06:30:52;19.92;;;5.85;;
53271;SDS011;39160;48.580;7.756;2022-12-18T06:35:43;14.60;;;4.30;;
53271;SDS011;39160;48.580;7.756;2022-12-18T06:40:34;13.23;;;4.35;;
53271;SDS011;39160;48.580;7.756;2022-12-18T06:45:26;17.85;;;5.13;;
53271;SDS011;39160;48.580;7.756;2022-12-18T06:50:17;14.23;;;5.63;;
53271;SDS011;39160;48.580;7.756;2022-12-18T06:55:07;14.32;;;4.88;;
53271;SDS011;39160;48.580;7.756;2022-12-18T06:59:58;11.63;;;4.50;;
53271;SDS011;39160;48.580;7.756;2022-12-18T07:04:49;14.43;;;5.05;;
53271;SDS011;39160;48.580;7.756;2022-12-18T07:09:39;14.95;;;5.18;;
53271;SDS011;39160;48.580;7.756;2022-12-18T07:14:30;11.13;;;4.78;;
53271;SDS011;39160;48.580;7.756;2022-12-18T07:19:20;12.10;;;4.57;;
53271;SDS011;39160;48.580;7.756;2022-12-18T07:24:11;13.85;;;4.65;;
53271;SDS011;39160;48.580;7.756;2022-12-18T07:29:02;11.60;;;4.43;;
53271;SDS011;39160;48.580;7.756;2022-12-18T07:33:52;16.38;;;5.72;;
53271;SDS011;39160;48.580;7.756;2022-12-18T07:38:46;13.20;;;4.70;;
53271;SDS011;39160;48.580;7.756;2022-12-18T07:43:38;10.48;;;4.25;;
53271;SDS011;39160;48.580;7.756;2022-12-18T07:48:29;17.75;;;5.22;;
53271;SDS011;39160;48.580;7.756;2022-12-18T07:53:20;14.35;;;5.07;;
53271;SDS011;39160;48.580;7.756;2022-12-18T07:58:11;13.40;;;5.75;;
53271;SDS011;39160;48.580;7.756;2022-12-18T08:03:02;15.10;;;5.63;;
53271;SDS011;39160;48.580;7.756;2022-12-18T08:07:53;13.85;;;4.22;;
53271;SDS011;39160;48.580;7.756;2022-12-18T08:12:44;16.20;;;4.95;;
53271;SDS011;39160;48.580;7.756;2022-12-18T08:17:35;14.07;;;4.90;;
53271;SDS011;39160;48.580;7.756;2022-12-18T08:27:27;11.48;;;4.28;;
53271;SDS011;39160;48.580;7.756;2022-12-18T08:32:29;14.00;;;4.72;;
53271;SDS011;39160;48.580;7.756;2022-12-18T08:37:20;13.93;;;4.90;;
53271;SDS011;39160;48.580;7.756;2022-12-18T08:42:11;12.70;;;5.78;;
53271;SDS011;39160;48.580;7.756;2022-12-18T08:47:20;17.95;;;5.60;;
53271;SDS011;39160;48.580;7.756;2022-12-18T08:52:11;14.00;;;6.05;;
53271;SDS011;39160;48.580;7.756;2022-12-18T08:57:02;15.40;;;6.00;;
53271;SDS011;39160;48.580;7.756;2022-12-18T09:01:53;14.43;;;5.05;;
53271;SDS011;39160;48.580;7.756;2022-12-18T09:06:45;13.73;;;4.72;;
53271;SDS011;39160;48.580;7.756;2022-12-18T09:11:35;15.23;;;6.20;;
53271;SDS011;39160;48.580;7.756;2022-12-18T09:16:28;14.88;;;6.00;;
53271;SDS011;39160;48.580;7.756;2022-12-18T09:21:19;18.30;;;5.03;;
53271;SDS011;39160;48.580;7.756;2022-12-18T09:26:10;12.63;;;4.72;;
53271;SDS011;39160;48.580;7.756;2022-12-18T09:31:05;14.25;;;4.70;;
53271;SDS011;39160;48.580;7.756;2022-12-18T09:35:57;18.77;;;4.80;;
53271;SDS011;39160;48.580;7.756;2022-12-18T09:40:55;13.07;;;4.65;;
53271;SDS011;39160;48.580;7.756;2022-12-18T09:45:51;14.45;;;5.53;;
53271;SDS011;39160;48.580;7.756;2022-12-18T09:50:46;17.85;;;5.45;;
53271;SDS011;39160;48.580;7.756;2022-12-18T09:55:40;7.07;;;4.88;;
53271;SDS011;39160;48.580;7.756;2022-12-18T10:00:32;10.67;;;4.53;;
53271;SDS011;39160;48.580;7.756;2022-12-18T10:05:29;14.10;;;5.03;;
53271;SDS011;39160;48.580;7.756;2022-12-18T10:15:29;15.18;;;5.45;;
53271;SDS011;39160;48.580;7.756;2022-12-18T10:20:40;19.92;;;6.03;;
53271;SDS011;39160;48.580;7.756;2022-12-18T10:30:23;8.35;;;4.43;;
53271;SDS011;39160;48.580;7.756;2022-12-18T10:35:19;19.63;;;5.50;;
53271;SDS011;39160;48.580;7.756;2022-12-18T10:40:13;20.45;;;5.85;;
53271;SDS011;39160;48.580;7.756;2022-12-18T10:45:09;14.40;;;5.85;;
53271;SDS011;39160;48.580;7.756;2022-12-18T10:50:03;15.90;;;5.68;;
53271;SDS011;39160;48.580;7.756;2022-12-18T10:54:58;18.63;;;7.03;;
53271;SDS011;39160;48.580;7.756;2022-12-18T10:59:56;16.75;;;5.47;;
53271;SDS011;39160;48.580;7.756;2022-12-18T11:04:50;15.93;;;6.00;;
53271;SDS011;39160;48.580;7.756;2022-12-18T11:09:42;19.90;;;6.03;;
53271;SDS011;39160;48.580;7.756;2022-12-18T11:14:33;20.85;;;6.47;;
53271;SDS011;39160;48.580;7.756;2022-12-18T11:19:36;16.50;;;6.30;;
53271;SDS011;39160;48.580;7.756;2022-12-18T11:29:27;21.05;;;6.50;;
53271;SDS011;39160;48.580;7.756;2022-12-18T11:34:24;21.92;;;7.75;;
53271;SDS011;39160;48.580;7.756;2022-12-18T11:39:20;17.35;;;7.03;;
53271;SDS011;39160;48.580;7.756;2022-12-18T11:44:32;20.95;;;6.57;;
53271;SDS011;39160;48.580;7.756;2022-12-18T11:49:33;23.98;;;8.35;;
53271;SDS011;39160;48.580;7.756;2022-12-18T11:54:25;21.95;;;7.60;;
53271;SDS011;39160;48.580;7.756;2022-12-18T11:59:19;19.33;;;6.43;;
53271;SDS011;39160;48.580;7.756;2022-12-18T12:19:32;14.27;;;5.97;;
53271;SDS011;39160;48.580;7.756;2022-12-18T12:40:11;25.05;;;7.47;;
53271;SDS011;39160;48.580;7.756;2022-12-18T12:45:07;17.13;;;7.57;;
53271;SDS011;39160;48.580;7.756;2022-12-18T12:50:12;25.38;;;8.88;;
53271;SDS011;39160;48.580;7.756;2022-12-18T12:55:07;21.60;;;8.70;;
53271;SDS011;39160;48.580;7.756;2022-12-18T13:10:39;30.63;;;10.52;;
53271;SDS011;39160;48.580;7.756;2022-12-18T13:15:41;14.40;;;6.88;;
53271;SDS011;39160;48.580;7.756;2022-12-18T13:20:44;21.85;;;7.55;;
53271;SDS011;39160;48.580;7.756;2022-12-18T13:25:37;22.90;;;8.70;;
53271;SDS011;39160;48.580;7.756;2022-12-18T13:45:42;17.98;;;6.75;;
53271;SDS011;39160;48.580;7.756;2022-12-18T13:50:35;15.90;;;7.47;;
53271;SDS011;39160;48.580;7.756;2022-12-18T13:55:25;25.15;;;8.18;;
53271;SDS011;39160;48.580;7.756;2022-12-18T14:00:26;21.42;;;7.70;;
53271;SDS011;39160;48.580;7.756;2022-12-18T14:05:27;18.98;;;7.78;;
53271;SDS011;39160;48.580;7.756;2022-12-18T14:10:24;23.20;;;7.03;;
53271;SDS011;39160;48.580;7.756;2022-12-18T14:20:31;22.33;;;8.35;;
53271;SDS011;39160;48.580;7.756;2022-12-18T14:30:24;22.08;;;8.38;;
53271;SDS011;39160;48.580;7.756;2022-12-18T14:35:17;22.15;;;8.05;;
53271;SDS011;39160;48.580;7.756;2022-12-18T14:40:11;21.63;;;9.48;;
53271;SDS011;39160;48.580;7.756;2022-12-18T14:50:26;19.35;;;8.00;;
53271;SDS011;39160;48.580;7.756;2022-12-18T14:55:17;20.33;;;8.63;;
53271;SDS011;39160;48.580;7.756;2022-12-18T15:00:15;24.40;;;8.60;;
53271;SDS011;39160;48.580;7.756;2022-12-18T15:05:27;16.77;;;7.35;;
53271;SDS011;39160;48.580;7.756;2022-12-18T15:10:20;21.30;;;7.60;;
53271;SDS011;39160;48.580;7.756;2022-12-18T15:20:32;27.20;;;9.48;;
53271;SDS011;39160;48.580;7.756;2022-12-18T15:25:45;19.67;;;7.75;;
53271;SDS011;39160;48.580;7.756;2022-12-18T15:30:36;17.48;;;7.38;;
53271;SDS011;39160;48.580;7.756;2022-12-18T15:35:27;21.58;;;8.15;;
53271;SDS011;39160;48.580;7.756;2022-12-18T15:40:21;19.90;;;6.70;;
53271;SDS011;39160;48.580;7.756;2022-12-18T15:45:13;18.98;;;7.25;;
53271;SDS011;39160;48.580;7.756;2022-12-18T15:50:04;23.27;;;8.60;;
53271;SDS011;39160;48.580;7.756;2022-12-18T15:54:55;19.67;;;7.32;;
53271;SDS011;39160;48.580;7.756;2022-12-18T16:00:05;26.05;;;9.18;;
53271;SDS011;39160;48.580;7.756;2022-12-18T16:04:55;23.30;;;7.45;;
53271;SDS011;39160;48.580;7.756;2022-12-18T16:09:46;21.13;;;8.93;;
53271;SDS011;39160;48.580;7.756;2022-12-18T16:14:37;18.25;;;8.55;;
53271;SDS011;39160;48.580;7.756;2022-12-18T16:19:28;24.38;;;8.02;;
53271;SDS011;39160;48.580;7.756;2022-12-18T16:24:20;23.17;;;8.38;;
53271;SDS011;39160;48.580;7.756;2022-12-18T16:29:12;26.38;;;8.77;;
53271;SDS011;39160;48.580;7.756;2022-12-18T16:34:36;22.38;;;7.85;;
53271;SDS011;39160;48.580;7.756;2022-12-18T16:39:21;21.77;;;8.70;;
53271;SDS011;39160;48.580;7.756;2022-12-18T16:44:12;31.33;;;8.20;;
53271;SDS011;39160;48.580;7.756;2022-12-18T16:49:03;25.60;;;8.02;;
53271;SDS011;39160;48.580;7.756;2022-12-18T16:53:55;26.17;;;8.70;;
53271;SDS011;39160;48.580;7.756;2022-12-18T16:58:50;22.52;;;8.18;;
53271;SDS011;39160;48.580;7.756;2022-12-18T17:03:41;21.17;;;8.35;;
53271;SDS011;39160;48.580;7.756;2022-12-18T17:08:32;22.67;;;8.07;;
53271;SDS011;39160;48.580;7.756;2022-12-18T17:13:25;25.75;;;10.15;;
53271;SDS011;39160;48.580;7.756;2022-12-18T17:18:16;26.05;;;8.55;;
53271;SDS011;39160;48.580;7.756;2022-12-18T17:23:07;24.08;;;8.73;;
53271;SDS011;39160;48.580;7.756;2022-12-18T17:27:57;19.98;;;7.72;;
53271;SDS011;39160;48.580;7.756;2022-12-18T17:32:48;22.33;;;9.30;;
53271;SDS011;39160;48.580;7.756;2022-12-18T17:37:38;21.02;;;7.40;;
53271;SDS011;39160;48.580;7.756;2022-12-18T17:42:29;22.15;;;8.45;;
53271;SDS011;39160;48.580;7.756;2022-12-18T17:47:20;25.95;;;8.15;;
53271;SDS011;39160;48.580;7.756;2022-12-18T17:52:10;22.77;;;9.27;;
53271;SDS011;39160;48.580;7.756;2022-12-18T17:57:01;31.60;;;10.52;;
53271;SDS011;39160;48.580;7.756;2022-12-18T18:01:52;23.52;;;10.45;;
53271;SDS011;39160;48.580;7.756;2022-12-18T18:06:43;31.17;;;10.32;;
53271;SDS011;39160;48.580;7.756;2022-12-18T18:11:33;21.23;;;9.55;;
53271;SDS011;39160;48.580;7.756;2022-12-18T18:16:43;23.83;;;9.15;;
53271;SDS011;39160;48.580;7.756;2022-12-18T18:21:39;24.48;;;11.25;;
53271;SDS011;39160;48.580;7.756;2022-12-18T18:26:32;25.65;;;10.23;;
53271;SDS011;39160;48.580;7.756;2022-12-18T18:31:24;23.27;;;9.43;;
53271;SDS011;39160;48.580;7.756;2022-12-18T18:36:16;34.53;;;10.27;;
53271;SDS011;39160;48.580;7.756;2022-12-18T18:41:06;21.60;;;9.48;;
53271;SDS011;39160;48.580;7.756;2022-12-18T18:45:58;23.02;;;8.43;;
53271;SDS011;39160;48.580;7.756;2022-12-18T18:51:01;23.83;;;10.50;;
53271;SDS011;39160;48.580;7.756;2022-12-18T18:55:52;20.98;;;9.25;;
53271;SDS011;39160;48.580;7.756;2022-12-18T19:00:43;26.52;;;8.85;;
53271;SDS011;39160;48.580;7.756;2022-12-18T19:05:33;26.27;;;8.10;;
53271;SDS011;39160;48.580;7.756;2022-12-18T19:10:24;25.83;;;10.10;;
53271;SDS011;39160;48.580;7.756;2022-12-18T19:15:15;22.30;;;10.07;;
53271;SDS011;39160;48.580;7.756;2022-12-18T19:20:05;26.83;;;10.25;;
53271;SDS011;39160;48.580;7.756;2022-12-18T19:24:56;25.15;;;8.10;;
53271;SDS011;39160;48.580;7.756;2022-12-18T19:29:47;21.45;;;8.80;;
53271;SDS011;39160;48.580;7.756;2022-12-18T19:34:38;27.67;;;8.80;;
53271;SDS011;39160;48.580;7.756;2022-12-18T19:39:29;22.02;;;9.00;;
53271;SDS011;39160;48.580;7.756;2022-12-18T19:44:20;22.75;;;10.32;;
53271;SDS011;39160;48.580;7.756;2022-12-18T19:49:11;21.88;;;8.40;;
53271;SDS011;39160;48.580;7.756;2022-12-18T19:54:02;23.55;;;9.77;;
53271;SDS011;39160;48.580;7.756;2022-12-18T19:58:53;23.02;;;9.52;;
53271;SDS011;39160;48.580;7.756;2022-12-18T20:03:44;28.52;;;10.80;;
53271;SDS011;39160;48.580;7.756;2022-12-18T20:08:36;26.27;;;9.82;;
53271;SDS011;39160;48.580;7.756;2022-12-18T20:13:26;24.30;;;10.05;;
53271;SDS011;39160;48.580;7.756;2022-12-18T20:18:17;22.73;;;8.80;;
53271;SDS011;39160;48.580;7.756;2022-12-18T20:23:08;25.13;;;9.18;;
53271;SDS011;39160;48.580;7.756;2022-12-18T20:27:59;27.75;;;9.98;;
53271;SDS011;39160;48.580;7.756;2022-12-18T20:32:49;22.08;;;7.90;;
53271;SDS011;39160;48.580;7.756;2022-12-18T20:37:46;27.40;;;9.70;;
53271;SDS011;39160;48.580;7.756;2022-12-18T20:42:37;24.52;;;9.48;;
53271;SDS011;39160;48.580;7.756;2022-12-18T20:47:28;22.77;;;8.45;;
53271;SDS011;39160;48.580;7.756;2022-12-18T20:52:18;28.92;;;9.40;;
53271;SDS011;39160;48.580;7.756;2022-12-18T20:57:09;20.50;;;8.43;;
53271;SDS011;39160;48.580;7.756;2022-12-18T21:02:00;24.77;;;8.80;;
53271;SDS011;39160;48.580;7.756;2022-12-18T21:06:50;17.10;;;7.88;;
53271;SDS011;39160;48.580;7.756;2022-12-18T21:11:41;27.60;;;10.95;;
53271;SDS011;39160;48.580;7.756;2022-12-18T21:16:50;24.55;;;9.75;;
53271;SDS011;39160;48.580;7.756;2022-12-18T21:21:43;25.60;;;9.00;;
53271;SDS011;39160;48.580;7.756;2022-12-18T21:26:34;21.85;;;9.20;;
53271;SDS011;39160;48.580;7.756;2022-12-18T21:31:27;20.17;;;8.93;;
53271;SDS011;39160;48.580;7.756;2022-12-18T21:36:23;22.80;;;8.93;;
53271;SDS011;39160;48.580;7.756;2022-12-18T21:41:14;23.70;;;9.38;;
53271;SDS011;39160;48.580;7.756;2022-12-18T21:46:25;26.35;;;11.13;;
53271;SDS011;39160;48.580;7.756;2022-12-18T21:51:15;23.67;;;9.23;;
53271;SDS011;39160;48.580;7.756;2022-12-18T21:56:06;28.42;;;10.05;;
53271;SDS011;39160;48.580;7.756;2022-12-18T22:00:56;27.60;;;11.18;;
53271;SDS011;39160;48.580;7.756;2022-12-18T22:05:47;24.58;;;10.10;;
53271;SDS011;39160;48.580;7.756;2022-12-18T22:10:38;26.90;;;11.60;;
53271;SDS011;39160;48.580;7.756;2022-12-18T22:15:28;29.15;;;9.70;;
53271;SDS011;39160;48.580;7.756;2022-12-18T22:20:19;25.60;;;10.35;;
53271;SDS011;39160;48.580;7.756;2022-12-18T22:25:10;24.83;;;10.07;;
53271;SDS011;39160;48.580;7.756;2022-12-18T22:30:01;25.30;;;9.80;;
53271;SDS011;39160;48.580;7.756;2022-12-18T22:34:58;27.50;;;8.68;;
53271;SDS011;39160;48.580;7.756;2022-12-18T22:39:49;23.45;;;8.98;;
53271;SDS011;39160;48.580;7.756;2022-12-18T22:44:39;24.27;;;11.48;;
53271;SDS011;39160;48.580;7.756;2022-12-18T22:49:30;29.25;;;11.13;;
53271;SDS011;39160;48.580;7.756;2022-12-18T22:54:21;30.52;;;11.40;;
53271;SDS011;39160;48.580;7.756;2022-12-18T22:59:15;27.77;;;10.80;;
53271;SDS011;39160;48.580;7.756;2022-12-18T23:04:08;23.00;;;9.15;;
53271;SDS011;39160;48.580;7.756;2022-12-18T23:09:00;23.02;;;9.77;;
53271;SDS011;39160;48.580;7.756;2022-12-18T23:13:51;23.10;;;8.43;;
53271;SDS011;39160;48.580;7.756;2022-12-18T23:18:42;24.40;;;9.40;;
53271;SDS011;39160;48.580;7.756;2022-12-18T23:23:34;17.75;;;8.68;;
53271;SDS011;39160;48.580;7.756;2022-12-18T23:28:25;18.45;;;8.93;;
53271;SDS011;39160;48.580;7.756;2022-12-18T23:33:15;26.05;;;10.18;;
53271;SDS011;39160;48.580;7.756;2022-12-18T23:38:06;25.50;;;10.50;;
53271;SDS011;39160;48.580;7.756;2022-12-18T23:42:57;24.30;;;10.57;;
53271;SDS011;39160;48.580;7.756;2022-12-18T23:47:49;22.02;;;9.25;;
53271;SDS011;39160;48.580;7.756;2022-12-18T23:52:39;21.15;;;8.85;;
53271;SDS011;39160;48.580;7.756;2022-12-18T23:57:30;19.75;;;8.80;;
